Terminal Aerodrome Forecast
Issued by NWS

Home | Current Version | Previous Version | Text Only | Print | Product List | Glossary Off
Versions: 1 2 3 4 5 6 7 8 9 10 11 12 13 14 15 16 17 18

428
FTUS43 KMPX 260706 AAA
TAFRNH
TAF AMD
KRNH 260706Z 2607/2706 09007KT 6SM -RA BR OVC008
      TEMPO 2607/2610 4SM -DZ BR OVC005
     FM261000 03007KT 3SM -RADZ BR SCT003 OVC005
     FM261800 02005KT 6SM BR OVC009=

USA.gov is the U.S. government's official web portal to all federal, state and local government web resources and services.